Aeroporto :
LOGIN :

Iscrizione | Disclaimer

   EN    FR    IT 

 










Sommario :    VFR   VFR Marginale   IFR   IFR Intensivo   IFR Molto Intensivo
Visibilità : 
Base nubi : 
>= 8 km
>= 3000ft
5 / 8 km
1000 / 3000 ft
1500m / 5 km
500 / 1000 ft
800 / 1500m
200 / 500 ft
< 800m
< 200 ft
Simboli :   Temporali  Nebbia  Neve Forte  Precipitazioni Forti  Vento > 20 kt
SIGMETs :   Varie  Temporali  Ghiacco  Turbolenza  Onda orograficha  Ceneri Vulcaniche






- Altitudine del aeroporto : 157 ft
- Codice IATA : SXF


EDDB - Berlin Schönefeld

ULTIMO METAR :
  • 062150Z 15006KT CAVOK 09/00 Q1024 NOSIG

METARs OBSOLETI :
  • 062120Z 12002KT CAVOK 10/01 Q1024 NOSIG
  • 062050Z 15003KT 110V170 CAVOK 10/01 Q1024 NOSIG
  • 062020Z 13004KT CAVOK 10/01 Q1024 NOSIG
  • 061950Z 12005KT CAVOK 11/01 Q1023 NOSIG
  • 061920Z 15004KT CAVOK 12/01 Q1024 NOSIG

TAF TAF EDDB
Valido dal 06 a 18 ore il 07 a 18 ore UTC


061700Z 0618/0718 18005KT CAVOK
BECMG 0703/0706 27005KT
BECMG 0706/0709 33005KT
PROB30
TEMPO 0707/0710 BKN012
BECMG 0713/0716 03005KT



MetMap, La meteo Aeronautica in un colpo d'occhio ! - Copyright ORBIFLY Dicembre 2007 - Disclaimer

ORBIFLY MET'MAP TEAM :

Programmazione e sviluppo : Alexandra Zaïnal
Concezione : Baudouin d'Aumeries
Aiuto per la programmazione : Marc-Olivier Méhu
Supporto tecnico e logistico : Manuel Goepfert
Aiuto per la traduzione : Arnaldo La Scala

Contatto : metmap@orbifly.com




FONTI E CREDITI :

   NOAA